createdAt,value
2022-08-09T00:00:12.346Z,0
2022-08-09T00:01:14.467Z,0
2022-08-09T00:02:12.291Z,0
2022-08-09T00:04:08.510Z,0
2022-08-09T00:04:24.885Z,0
2022-08-09T00:06:18.424Z,0
2022-08-09T00:06:19.789Z,0
2022-08-09T00:07:12.259Z,0
2022-08-09T00:08:31.299Z,0
2022-08-09T00:09:12.258Z,0
2022-08-09T00:10:21.542Z,0
2022-08-09T00:11:24.352Z,0
2022-08-09T00:12:22.289Z,0
2022-08-09T00:13:16.899Z,0
2022-08-09T00:14:12.261Z,0
2022-08-09T00:15:13.860Z,0
2022-08-09T00:16:12.761Z,0
2022-08-09T00:18:04.220Z,0
2022-08-09T00:18:12.613Z,0
2022-08-09T00:19:12.249Z,0
2022-08-09T00:20:12.272Z,0
2022-08-09T00:21:12.271Z,0
2022-08-09T00:22:12.263Z,0
2022-08-09T00:23:55.200Z,0
2022-08-09T00:24:12.264Z,0
2022-08-09T00:25:12.857Z,0
2022-08-09T00:26:12.277Z,0
2022-08-09T00:27:12.266Z,0
2022-08-09T00:28:12.254Z,0
2022-08-09T00:29:39.228Z,0
2022-08-09T00:30:25.442Z,0
2022-08-09T00:31:55.782Z,0
2022-08-09T00:32:12.579Z,0
2022-08-09T00:33:12.252Z,0
2022-08-09T00:34:12.253Z,0
2022-08-09T00:35:12.243Z,0
2022-08-09T00:36:12.261Z,0
2022-08-09T00:37:12.249Z,0
2022-08-09T00:38:12.263Z,0
2022-08-09T00:40:09.510Z,0
2022-08-09T00:40:17.215Z,0
2022-08-09T00:41:12.268Z,0
2022-08-09T00:44:13.328Z,0
2022-08-09T00:44:16.957Z,0
2022-08-09T00:44:26.392Z,0
2022-08-09T00:45:15.731Z,0
2022-08-09T00:46:14.536Z,0
2022-08-09T00:47:15.555Z,0
2022-08-09T00:48:15.335Z,0
2022-08-09T00:49:12.257Z,0
2022-08-09T00:50:14.526Z,0
2022-08-09T00:51:12.940Z,0
2022-08-09T00:52:15.916Z,0
2022-08-09T00:53:12.263Z,0
2022-08-09T00:54:12.261Z,0
2022-08-09T00:55:32.965Z,0
2022-08-09T00:56:12.262Z,0
2022-08-09T00:57:12.261Z,0
2022-08-09T00:58:14.860Z,0
2022-08-09T00:59:12.250Z,0
2022-08-09T01:00:21.657Z,0
2022-08-09T01:01:16.164Z,0
2022-08-09T01:02:12.247Z,0
2022-08-09T01:03:12.255Z,0
2022-08-09T01:04:12.261Z,0
2022-08-09T01:05:14.153Z,0
2022-08-09T01:06:18.027Z,0
2022-08-09T01:07:12.379Z,0
2022-08-09T01:08:12.264Z,0
2022-08-09T01:09:12.254Z,0
2022-08-09T01:10:12.259Z,0
2022-08-09T01:11:15.144Z,0
2022-08-09T01:12:12.817Z,0
2022-08-09T01:13:12.249Z,0
2022-08-09T01:14:12.266Z,0
2022-08-09T01:15:17.609Z,0
2022-08-09T01:16:12.954Z,0
2022-08-09T01:17:12.260Z,0
2022-08-09T01:18:14.239Z,0
2022-08-09T01:19:16.773Z,0
2022-08-09T01:20:12.272Z,0
2022-08-09T01:21:12.274Z,0
2022-08-09T01:22:12.504Z,0
2022-08-09T01:24:00.700Z,0
2022-08-09T01:24:12.278Z,0
2022-08-09T01:25:12.412Z,0
2022-08-09T01:26:12.278Z,0
2022-08-09T01:27:12.265Z,0
2022-08-09T01:28:12.252Z,0
2022-08-09T01:29:12.261Z,0
2022-08-09T01:30:33.440Z,0
2022-08-09T01:32:30.959Z,0
2022-08-09T01:32:31.646Z,0
2022-08-09T01:33:12.262Z,0
2022-08-09T01:34:12.259Z,0
2022-08-09T01:35:28.594Z,0
2022-08-09T01:36:13.500Z,0
2022-08-09T01:37:12.260Z,0
2022-08-09T01:38:15.211Z,0
2022-08-09T01:39:12.332Z,0
2022-08-09T01:40:12.255Z,0
2022-08-09T01:41:12.310Z,0
2022-08-09T01:42:12.250Z,0
2022-08-09T01:43:12.246Z,0
2022-08-09T01:44:12.248Z,0
2022-08-09T01:45:12.252Z,0
2022-08-09T01:46:12.256Z,0
2022-08-09T01:47:12.247Z,0
2022-08-09T01:48:12.260Z,0
2022-08-09T01:49:12.844Z,0
2022-08-09T01:50:12.252Z,0
2022-08-09T01:51:12.269Z,0
2022-08-09T01:52:12.273Z,0
2022-08-09T01:53:19.337Z,0
2022-08-09T01:54:12.262Z,0
2022-08-09T01:55:12.258Z,0
2022-08-09T01:56:12.269Z,0
2022-08-09T01:57:14.780Z,0
2022-08-09T01:58:12.271Z,0
2022-08-09T01:59:16.146Z,0
2022-08-09T02:00:35.001Z,0
2022-08-09T02:01:18.477Z,0
2022-08-09T02:02:12.288Z,0
2022-08-09T02:03:13.634Z,0
2022-08-09T02:04:12.260Z,0
2022-08-09T02:05:15.791Z,0
2022-08-09T02:06:12.274Z,0
2022-08-09T02:07:18.335Z,0
2022-08-09T02:08:40.801Z,0
2022-08-09T02:09:12.275Z,0
2022-08-09T02:10:12.281Z,0
2022-08-09T02:11:16.573Z,0
2022-08-09T02:12:13.457Z,0
2022-08-09T02:13:12.268Z,0
2022-08-09T02:14:15.900Z,0
2022-08-09T02:15:16.785Z,0
2022-08-09T02:16:12.446Z,0
2022-08-09T02:17:55.087Z,0
2022-08-09T02:18:12.265Z,0
2022-08-09T02:19:12.262Z,0
2022-08-09T02:20:12.718Z,0
2022-08-09T02:21:17.034Z,0
2022-08-09T02:22:12.266Z,0
2022-08-09T02:23:12.259Z,0
2022-08-09T02:24:12.250Z,0
2022-08-09T02:25:15.048Z,0
2022-08-09T02:26:26.894Z,0
2022-08-09T02:27:12.247Z,0
2022-08-09T02:28:12.255Z,0
2022-08-09T02:29:12.263Z,0
2022-08-09T02:30:12.263Z,0
2022-08-09T02:31:12.271Z,0
2022-08-09T02:32:12.251Z,0
2022-08-09T02:33:14.163Z,0
2022-08-09T02:34:13.823Z,0
2022-08-09T02:35:17.387Z,0
2022-08-09T02:36:12.272Z,0
2022-08-09T02:37:12.412Z,0
2022-08-09T02:38:12.262Z,0
2022-08-09T02:39:19.811Z,0
2022-08-09T02:42:12.269Z,0
2022-08-09T02:43:12.251Z,0
2022-08-09T02:44:29.066Z,0
2022-08-09T02:45:12.247Z,0
2022-08-09T02:46:12.254Z,0
2022-08-09T02:47:12.263Z,0
2022-08-09T02:48:19.390Z,0
2022-08-09T02:49:12.262Z,0
2022-08-09T02:50:12.245Z,0
2022-08-09T02:51:12.249Z,0
2022-08-09T02:52:12.255Z,0
2022-08-09T02:53:26.343Z,0
2022-08-09T02:54:12.358Z,0
2022-08-09T02:55:20.623Z,0
2022-08-09T02:56:12.254Z,0
2022-08-09T02:57:13.887Z,0
2022-08-09T02:58:35.498Z,0
2022-08-09T02:59:16.033Z,0
2022-08-09T03:00:25.374Z,0
2022-08-09T03:01:21.866Z,0
2022-08-09T03:02:16.854Z,0
2022-08-09T03:03:12.260Z,0
2022-08-09T03:04:19.172Z,0
2022-08-09T03:05:16.636Z,0
2022-08-09T03:06:12.256Z,0
2022-08-09T03:07:14.225Z,0
2022-08-09T03:08:12.252Z,0
2022-08-09T03:09:12.257Z,0
2022-08-09T03:10:12.241Z,1
2022-08-09T03:11:12.248Z,1
2022-08-09T03:12:13.430Z,3
2022-08-09T03:13:12.257Z,3
2022-08-09T03:14:12.247Z,5
2022-08-09T03:15:12.245Z,5
2022-08-09T03:16:12.258Z,7
2022-08-09T03:17:20.297Z,9
2022-08-09T03:18:12.261Z,11
2022-08-09T03:19:14.483Z,12
2022-08-09T03:20:12.247Z,16
2022-08-09T03:21:12.252Z,18
2022-08-09T03:22:25.515Z,22
2022-08-09T03:23:15.172Z,25
2022-08-09T03:24:12.259Z,27
2022-08-09T03:25:26.052Z,33
2022-08-09T03:26:12.252Z,38
2022-08-09T03:27:12.269Z,44
2022-08-09T03:28:12.258Z,49
2022-08-09T03:29:22.505Z,57
2022-08-09T03:30:12.258Z,64
2022-08-09T03:31:22.707Z,71
2022-08-09T03:32:12.265Z,81
2022-08-09T03:33:17.308Z,90
2022-08-09T03:34:12.255Z,103
2022-08-09T03:35:14.983Z,114
2022-08-09T03:36:16.330Z,123
2022-08-09T03:37:58.285Z,138
2022-08-09T03:38:16.017Z,152
2022-08-09T03:39:12.290Z,167
2022-08-09T03:40:13.133Z,182
2022-08-09T03:41:15.462Z,199
2022-08-09T03:42:12.269Z,215
2022-08-09T03:43:12.260Z,232
2022-08-09T03:44:12.258Z,252
2022-08-09T03:45:12.241Z,270
2022-08-09T03:46:20.530Z,291
2022-08-09T03:47:12.266Z,309
2022-08-09T03:48:12.260Z,331
2022-08-09T03:49:12.259Z,353
2022-08-09T03:50:12.243Z,376
2022-08-09T03:51:57.792Z,399
2022-08-09T03:52:12.263Z,420
2022-08-09T03:53:12.249Z,444
2022-08-09T03:54:12.249Z,470
2022-08-09T03:55:14.305Z,493
2022-08-09T03:56:12.262Z,517
2022-08-09T03:57:20.185Z,543
2022-08-09T03:58:16.742Z,569
2022-08-09T03:59:17.230Z,569
2022-08-09T04:00:12.249Z,623
2022-08-09T04:01:12.300Z,648
2022-08-09T04:02:12.263Z,676
2022-08-09T04:03:19.658Z,702
2022-08-09T04:04:14.523Z,729
2022-08-09T04:05:17.038Z,757
2022-08-09T04:06:12.244Z,787
2022-08-09T04:07:12.269Z,816
2022-08-09T04:08:12.243Z,844
2022-08-09T04:09:41.820Z,868
2022-08-09T04:10:12.252Z,901
2022-08-09T04:11:12.254Z,925
2022-08-09T04:12:30.996Z,952
2022-08-09T04:13:12.278Z,980
2022-08-09T04:14:52.986Z,1011
2022-08-09T04:15:29.296Z,1037
2022-08-09T04:16:19.423Z,1065
2022-08-09T04:17:12.262Z,1091
2022-08-09T04:18:16.501Z,1124
2022-08-09T04:19:15.786Z,1144
2022-08-09T04:20:12.246Z,1172
2022-08-09T04:21:12.256Z,1198
2022-08-09T04:22:13.105Z,1227
2022-08-09T04:23:16.777Z,1253
2022-08-09T04:24:12.257Z,1284
2022-08-09T04:25:12.246Z,1308
2022-08-09T04:26:12.242Z,1336
2022-08-09T04:27:12.265Z,1360
2022-08-09T04:28:12.484Z,1386
2022-08-09T04:29:15.563Z,1408
2022-08-09T04:30:12.250Z,1439
2022-08-09T04:31:13.101Z,1456
2022-08-09T04:32:12.261Z,1481
2022-08-09T04:33:12.268Z,1511
2022-08-09T04:34:12.248Z,1528
2022-08-09T04:35:12.246Z,1557
2022-08-09T04:36:12.263Z,1581
2022-08-09T04:37:12.268Z,1599
2022-08-09T04:38:12.257Z,1625
2022-08-09T04:39:12.309Z,1651
2022-08-09T04:40:12.249Z,1668
2022-08-09T04:41:12.252Z,1686
2022-08-09T04:42:12.264Z,1721
2022-08-09T04:43:12.259Z,1734
2022-08-09T04:44:12.258Z,1763
2022-08-09T04:45:12.246Z,1782
2022-08-09T04:46:37.557Z,1802
2022-08-09T04:47:12.277Z,1822
2022-08-09T04:48:12.254Z,1841
2022-08-09T04:49:14.781Z,1865
2022-08-09T04:50:12.252Z,1878
2022-08-09T04:51:12.262Z,1904
2022-08-09T04:52:12.265Z,1916
2022-08-09T04:53:13.382Z,1931
2022-08-09T04:54:12.258Z,1942
2022-08-09T04:55:12.756Z,1966
2022-08-09T04:56:12.257Z,1979
2022-08-09T04:57:12.388Z,1990
2022-08-09T04:58:12.254Z,2016
2022-08-09T04:59:15.404Z,2016
2022-08-09T05:00:12.249Z,2057
2022-08-09T05:01:16.030Z,2062
2022-08-09T05:02:12.263Z,2088
2022-08-09T05:03:30.196Z,2101
2022-08-09T05:04:12.336Z,2115
2022-08-09T05:05:12.241Z,2139
2022-08-09T05:06:21.792Z,2151
2022-08-09T05:07:12.784Z,2169
2022-08-09T05:08:14.897Z,2178
2022-08-09T05:09:12.442Z,2198
2022-08-09T05:10:12.245Z,2211
2022-08-09T05:11:12.250Z,2228
2022-08-09T05:12:12.558Z,2243
2022-08-09T05:13:12.253Z,2272
2022-08-09T05:14:12.251Z,2272
2022-08-09T05:15:38.372Z,2287
2022-08-09T05:16:12.261Z,2300
2022-08-09T05:18:37.416Z,2315
2022-08-09T05:18:39.370Z,2324
2022-08-09T05:19:12.251Z,2337
2022-08-09T05:20:12.256Z,2351
2022-08-09T05:21:20.795Z,2372
2022-08-09T05:22:33.317Z,2385
2022-08-09T05:23:55.320Z,2412
2022-08-09T05:24:12.258Z,2427
2022-08-09T05:25:12.251Z,2433
2022-08-09T05:26:22.300Z,2447
2022-08-09T05:27:13.384Z,2462
2022-08-09T05:28:12.251Z,2479
2022-08-09T05:29:17.776Z,2488
2022-08-09T05:30:12.246Z,2501
2022-08-09T05:31:12.257Z,2514
2022-08-09T05:32:12.265Z,2536
2022-08-09T05:33:12.262Z,2543
2022-08-09T05:34:16.517Z,2550
2022-08-09T05:35:12.241Z,2573
2022-08-09T05:36:12.246Z,2569
2022-08-09T05:37:12.260Z,2571
2022-08-09T05:38:12.254Z,2584
2022-08-09T05:39:12.335Z,2595
2022-08-09T05:40:12.305Z,2604
2022-08-09T05:41:12.837Z,2613
2022-08-09T05:42:17.227Z,2621
2022-08-09T05:43:12.259Z,2637
2022-08-09T05:44:12.260Z,2650
2022-08-09T05:45:14.135Z,2659
2022-08-09T05:46:12.255Z,2674
2022-08-09T05:47:12.264Z,2678
2022-08-09T05:48:12.256Z,2694
2022-08-09T05:49:13.703Z,2711
2022-08-09T05:50:25.546Z,2716
2022-08-09T05:51:29.783Z,2729
2022-08-09T05:52:12.265Z,2748
2022-08-09T05:53:32.462Z,2757
2022-08-09T05:54:12.254Z,2772
2022-08-09T05:55:18.255Z,2785
2022-08-09T05:56:12.248Z,2794
2022-08-09T05:57:12.803Z,2814
2022-08-09T05:58:12.253Z,2820
2022-08-09T05:59:12.258Z,2820
2022-08-09T06:00:12.245Z,2840
2022-08-09T06:01:15.836Z,2851
2022-08-09T06:02:12.265Z,2864
2022-08-09T06:03:12.356Z,2862
2022-08-09T06:04:12.501Z,2869
2022-08-09T06:05:12.246Z,2880
2022-08-09T06:06:12.244Z,2890
2022-08-09T06:07:21.070Z,2903
2022-08-09T06:08:12.254Z,2915
2022-08-09T06:09:23.183Z,2921
2022-08-09T06:10:15.956Z,2927
2022-08-09T06:11:17.348Z,2941
2022-08-09T06:12:12.273Z,2954
2022-08-09T06:13:20.248Z,2956
2022-08-09T06:14:12.245Z,2969
2022-08-09T06:15:12.252Z,2978
2022-08-09T06:16:12.247Z,2995
2022-08-09T06:17:12.274Z,2995
2022-08-09T06:18:12.258Z,3006
2022-08-09T06:19:12.247Z,3019
2022-08-09T06:20:12.273Z,3026
2022-08-09T06:21:12.241Z,3056
2022-08-09T06:22:15.234Z,3065
2022-08-09T06:23:15.575Z,3085
2022-08-09T06:24:12.266Z,3161
2022-08-09T06:25:12.462Z,3282
2022-08-09T06:26:12.259Z,3516
2022-08-09T06:27:12.267Z,5236
2022-08-09T06:28:12.248Z,8268
2022-08-09T06:29:14.999Z,10817
2022-08-09T06:30:13.985Z,11814
2022-08-09T06:31:12.251Z,11919
2022-08-09T06:32:53.464Z,12043
2022-08-09T06:33:30.202Z,12063
2022-08-09T06:34:12.269Z,12131
2022-08-09T06:35:12.244Z,12283
2022-08-09T06:36:13.811Z,12447
2022-08-09T06:37:12.261Z,12436
2022-08-09T06:38:12.252Z,12530
2022-08-09T06:39:12.629Z,12601
2022-08-09T06:40:23.881Z,12660
2022-08-09T06:41:18.968Z,12672
2022-08-09T06:42:12.265Z,13595
2022-08-09T06:43:12.261Z,13648
2022-08-09T06:44:12.256Z,13243
2022-08-09T06:46:03.351Z,13337
2022-08-09T06:46:13.166Z,13438
2022-08-09T06:47:12.351Z,13516
2022-08-09T06:48:12.262Z,13525
2022-08-09T06:49:12.261Z,13700
2022-08-09T06:50:15.688Z,13746
2022-08-09T06:51:12.267Z,13805
2022-08-09T06:52:15.702Z,13801
2022-08-09T06:53:12.253Z,13696
2022-08-09T06:54:13.922Z,13783
2022-08-09T06:55:12.752Z,13901
2022-08-09T06:56:12.249Z,13989
2022-08-09T06:57:12.266Z,14159
2022-08-09T06:58:40.731Z,14406
2022-08-09T07:00:52.320Z,14406
2022-08-09T07:00:56.139Z,14789
2022-08-09T07:01:12.283Z,14771
2022-08-09T07:02:12.326Z,14815
2022-08-09T07:03:12.277Z,14893
2022-08-09T07:04:12.252Z,14642
2022-08-09T07:05:12.249Z,14642
2022-08-09T07:06:12.247Z,14935
2022-08-09T07:07:12.315Z,15355
2022-08-09T07:08:12.249Z,15427
2022-08-09T07:09:53.645Z,15447
2022-08-09T07:10:24.063Z,15431
2022-08-09T07:11:12.751Z,15805
2022-08-09T07:12:13.589Z,16092
2022-08-09T07:13:27.271Z,15904
2022-08-09T07:14:12.249Z,15715
2022-08-09T07:16:38.603Z,15906
2022-08-09T07:16:40.872Z,15617
2022-08-09T07:17:12.274Z,14732
2022-08-09T07:18:14.347Z,13529
2022-08-09T07:19:15.687Z,12858
2022-08-09T07:20:12.254Z,12380
2022-08-09T07:21:12.255Z,11949
2022-08-09T07:22:12.258Z,11754
2022-08-09T07:23:18.898Z,11612
2022-08-09T07:24:12.262Z,11547
2022-08-09T07:25:12.242Z,11905
2022-08-09T07:26:12.256Z,11908
2022-08-09T07:27:26.169Z,12690
2022-08-09T07:28:12.258Z,13164
2022-08-09T07:29:13.500Z,13868
2022-08-09T07:30:12.251Z,13960
2022-08-09T07:31:12.261Z,13978
2022-08-09T07:32:12.264Z,14235
2022-08-09T07:33:16.458Z,14515
2022-08-09T07:34:20.135Z,14714
2022-08-09T07:35:12.239Z,14859
2022-08-09T07:36:12.257Z,14854
2022-08-09T07:37:15.791Z,14990
2022-08-09T07:38:12.257Z,15116
2022-08-09T07:39:12.284Z,15248
2022-08-09T07:40:13.113Z,15261
2022-08-09T07:41:12.911Z,15311
2022-08-09T07:42:12.267Z,15394
2022-08-09T07:43:16.386Z,15479
2022-08-09T07:44:12.255Z,15457
2022-08-09T07:45:22.697Z,15523
2022-08-09T07:46:12.264Z,15552
2022-08-09T07:47:12.263Z,15532
2022-08-09T07:48:29.531Z,15576
2022-08-09T07:49:15.471Z,15693
2022-08-09T07:50:12.272Z,15823
2022-08-09T07:52:04.613Z,15888
2022-08-09T07:52:16.939Z,15785
2022-08-09T07:53:12.243Z,15359
2022-08-09T07:54:12.260Z,14776
2022-08-09T07:55:12.243Z,14988
2022-08-09T07:56:26.678Z,14638
2022-08-09T07:57:12.268Z,14612
2022-08-09T07:58:13.120Z,14625
2022-08-09T07:59:16.128Z,14625
2022-08-09T08:00:12.245Z,14640
2022-08-09T08:01:12.241Z,14797
2022-08-09T08:02:16.638Z,14885
2022-08-09T08:03:12.255Z,15123
2022-08-09T08:04:12.241Z,15084
2022-08-09T08:05:17.939Z,14966
2022-08-09T08:06:14.411Z,15121
2022-08-09T08:08:05.959Z,15182
2022-08-09T08:09:02.634Z,15149
2022-08-09T08:09:35.258Z,15086
2022-08-09T08:10:12.262Z,15084
2022-08-09T08:12:11.481Z,15128
2022-08-09T08:12:27.752Z,15182
2022-08-09T08:13:12.248Z,15269
2022-08-09T08:14:12.256Z,15270
2022-08-09T08:15:12.243Z,15293
2022-08-09T08:16:29.826Z,15335
2022-08-09T08:17:24.711Z,15401
2022-08-09T08:18:12.255Z,15477
2022-08-09T08:19:12.246Z,15427
2022-08-09T08:20:13.159Z,15431
2022-08-09T08:21:12.252Z,15536
2022-08-09T08:22:12.251Z,15543
2022-08-09T08:23:17.155Z,15593
2022-08-09T08:24:16.406Z,15632
2022-08-09T08:25:13.480Z,15707
2022-08-09T08:26:13.130Z,15716
2022-08-09T08:27:16.983Z,15729
2022-08-09T08:28:14.440Z,15809
2022-08-09T08:29:12.259Z,15873
2022-08-09T08:30:12.261Z,16015
2022-08-09T08:31:14.974Z,16078
2022-08-09T08:32:12.432Z,16164
2022-08-09T08:33:12.271Z,16290
2022-08-09T08:34:12.260Z,16419
2022-08-09T08:35:12.241Z,16515
2022-08-09T08:36:12.249Z,16631
2022-08-09T08:37:15.842Z,16719
2022-08-09T08:38:12.247Z,16843
2022-08-09T08:39:12.320Z,16915
2022-08-09T08:40:12.249Z,17086
2022-08-09T08:41:12.245Z,17014
2022-08-09T08:42:12.269Z,17104
2022-08-09T08:43:13.457Z,17315
2022-08-09T08:44:13.761Z,17499
2022-08-09T08:45:13.761Z,17687
2022-08-09T08:46:33.328Z,17759
2022-08-09T08:47:13.456Z,17879
2022-08-09T08:48:12.260Z,17926
2022-08-09T08:49:12.886Z,18035
2022-08-09T08:50:12.254Z,18199
2022-08-09T08:51:12.247Z,18262
2022-08-09T08:52:20.302Z,18354
2022-08-09T08:53:16.038Z,18391
2022-08-09T08:54:20.119Z,18452
2022-08-09T08:55:15.108Z,18485
2022-08-09T08:56:16.790Z,18575
2022-08-09T08:57:12.263Z,18596
2022-08-09T08:58:12.250Z,18704
2022-08-09T08:59:19.965Z,18704
2022-08-09T09:00:16.878Z,18948
2022-08-09T09:01:20.840Z,19095
2022-08-09T09:02:12.307Z,19112
2022-08-09T09:03:20.757Z,19150
2022-08-09T09:04:12.260Z,19160
2022-08-09T09:05:12.253Z,19193
2022-08-09T09:06:12.257Z,19209
2022-08-09T09:07:12.262Z,19224
2022-08-09T09:08:30.198Z,19281
2022-08-09T09:09:21.097Z,19381
2022-08-09T09:10:12.278Z,19355
2022-08-09T09:11:17.601Z,19405
2022-08-09T09:12:12.303Z,19431
2022-08-09T09:13:12.252Z,19285
2022-08-09T09:14:15.655Z,19333
2022-08-09T09:15:12.315Z,19401
2022-08-09T09:16:12.255Z,19497
2022-08-09T09:17:16.303Z,19469
2022-08-09T09:18:12.258Z,19408
2022-08-09T09:19:41.481Z,19388
2022-08-09T09:20:15.189Z,19394
2022-08-09T09:21:12.259Z,19502
2022-08-09T09:22:12.633Z,19324
2022-08-09T09:23:14.172Z,19401
2022-08-09T09:24:20.567Z,19407
2022-08-09T09:26:01.854Z,19613
2022-08-09T09:26:12.763Z,19678
2022-08-09T09:27:21.954Z,19624
2022-08-09T09:28:12.267Z,19783
2022-08-09T09:29:16.763Z,19744
2022-08-09T09:30:26.230Z,19893
2022-08-09T09:31:17.577Z,20035
2022-08-09T09:32:15.930Z,20050
2022-08-09T09:33:13.792Z,20103
2022-08-09T09:34:14.245Z,20066
2022-08-09T09:35:12.904Z,20063
2022-08-09T09:36:21.061Z,20254
2022-08-09T09:37:12.967Z,20324
2022-08-09T09:38:27.609Z,20404
2022-08-09T09:39:12.301Z,20511
2022-08-09T09:40:12.343Z,20636
2022-08-09T09:41:12.261Z,21331
2022-08-09T09:42:12.262Z,19663
2022-08-09T09:43:13.620Z,20076
2022-08-09T09:44:15.592Z,20470
2022-08-09T09:45:14.409Z,19829
2022-08-09T09:46:41.792Z,21729
2022-08-09T09:47:12.276Z,21012
2022-08-09T09:48:12.255Z,20463
2022-08-09T09:49:12.254Z,20350
2022-08-09T09:50:16.901Z,20195
2022-08-09T09:51:25.909Z,20116
2022-08-09T09:52:33.368Z,20116
2022-08-09T09:53:12.257Z,20181
2022-08-09T09:54:19.210Z,19825
2022-08-09T09:55:28.407Z,20000
2022-08-09T09:56:19.731Z,19915
2022-08-09T09:58:03.317Z,19989
2022-08-09T09:58:17.295Z,19980
2022-08-09T09:59:12.252Z,19980
2022-08-09T10:00:12.353Z,20171
2022-08-09T10:01:31.416Z,20136
2022-08-09T10:02:12.260Z,20269
2022-08-09T10:03:13.981Z,20439
2022-08-09T10:04:12.306Z,20498
2022-08-09T10:05:12.240Z,20606
2022-08-09T10:06:12.554Z,20568
2022-08-09T10:07:12.265Z,20664
2022-08-09T10:08:28.414Z,20629
2022-08-09T10:09:22.108Z,20494
2022-08-09T10:10:12.263Z,20542
2022-08-09T10:11:53.715Z,20577
2022-08-09T10:12:27.730Z,20734
2022-08-09T10:13:12.256Z,20658
2022-08-09T10:14:12.251Z,20546
2022-08-09T10:15:17.473Z,20489
2022-08-09T10:16:57.100Z,20479
2022-08-09T10:17:55.180Z,20365
2022-08-09T10:18:12.257Z,20461
2022-08-09T10:19:12.262Z,20931
2022-08-09T10:20:15.238Z,21841
2022-08-09T10:21:12.241Z,20903
2022-08-09T10:22:12.263Z,20966
2022-08-09T10:23:12.262Z,21104
2022-08-09T10:24:16.097Z,20971
2022-08-09T10:25:14.315Z,20977
2022-08-09T10:26:12.243Z,21027
2022-08-09T10:27:17.169Z,21034
2022-08-09T10:28:12.251Z,21019
2022-08-09T10:29:35.974Z,20896
2022-08-09T10:31:15.576Z,20870
2022-08-09T10:32:38.282Z,20625
2022-08-09T10:34:05.261Z,20651
2022-08-09T10:34:32.626Z,20481
2022-08-09T10:35:13.338Z,20546
2022-08-09T10:36:12.642Z,20599
2022-08-09T10:37:13.906Z,20512
2022-08-09T10:38:34.033Z,20533
2022-08-09T10:39:15.523Z,20590
2022-08-09T10:40:33.510Z,20669
2022-08-09T10:41:12.264Z,20618
2022-08-09T10:42:12.261Z,14730
2022-08-09T10:43:13.004Z,8397
2022-08-09T10:44:12.247Z,20892
2022-08-09T10:45:16.514Z,20809
2022-08-09T10:46:18.216Z,20798
2022-08-09T10:48:12.276Z,21001
2022-08-09T10:48:26.428Z,11031
2022-08-09T10:49:12.266Z,11289
2022-08-09T10:50:15.057Z,21207
2022-08-09T10:51:12.263Z,19561
2022-08-09T10:52:13.568Z,20835
2022-08-09T10:53:12.256Z,20807
2022-08-09T10:54:13.212Z,20789
2022-08-09T10:55:12.243Z,20546
2022-08-09T10:56:12.254Z,20321
2022-08-09T10:57:12.269Z,20857
2022-08-09T10:58:17.138Z,20907
2022-08-09T10:59:12.254Z,20907
2022-08-09T11:00:12.251Z,20911
2022-08-09T11:03:12.072Z,9592
2022-08-09T11:03:15.056Z,19045
2022-08-09T11:03:27.899Z,11938
2022-08-09T11:04:27.917Z,20778
2022-08-09T11:05:12.286Z,13615
2022-08-09T11:06:12.256Z,20453
2022-08-09T11:07:12.267Z,20358
2022-08-09T11:08:12.246Z,20358
2022-08-09T11:09:16.223Z,20354
2022-08-09T11:10:12.253Z,20535
2022-08-09T11:11:12.258Z,20586
2022-08-09T11:12:12.268Z,20516
2022-08-09T11:13:12.246Z,20555
2022-08-09T11:14:12.247Z,20736
2022-08-09T11:15:15.428Z,11081
2022-08-09T11:16:12.260Z,13488
2022-08-09T11:17:12.254Z,20402
2022-08-09T11:18:12.259Z,10885
2022-08-09T11:19:12.257Z,20470
2022-08-09T11:20:22.250Z,20359
2022-08-09T11:21:12.250Z,20520
2022-08-09T11:22:21.534Z,20382
2022-08-09T11:23:12.259Z,20249
2022-08-09T11:24:12.249Z,8218
2022-08-09T11:25:12.246Z,7853
2022-08-09T11:26:12.243Z,7940
2022-08-09T11:27:12.258Z,8104
2022-08-09T11:28:30.616Z,18920
2022-08-09T11:29:12.268Z,17683
2022-08-09T11:30:32.586Z,21521
2022-08-09T11:31:12.259Z,21265
2022-08-09T11:32:12.264Z,20559
2022-08-09T11:33:12.258Z,18354
2022-08-09T11:34:12.257Z,9127
2022-08-09T11:35:12.367Z,7911
2022-08-09T11:36:12.253Z,7662
2022-08-09T11:37:18.279Z,7739
2022-08-09T11:38:12.262Z,7853
2022-08-09T11:39:12.370Z,10814
2022-08-09T11:40:12.259Z,20920
2022-08-09T11:41:12.873Z,21222
2022-08-09T11:42:14.752Z,20953
2022-08-09T11:43:12.248Z,20304
2022-08-09T11:44:12.245Z,20317
2022-08-09T11:45:12.242Z,19858
2022-08-09T11:46:12.251Z,19659
2022-08-09T11:47:14.644Z,19928
2022-08-09T11:48:17.438Z,19781
2022-08-09T11:49:16.903Z,19847
2022-08-09T11:50:56.091Z,19631
2022-08-09T11:52:56.628Z,19578
2022-08-09T11:53:03.370Z,19836
2022-08-09T11:53:59.095Z,19095
2022-08-09T11:54:12.862Z,18992
2022-08-09T11:55:12.239Z,9632
2022-08-09T11:56:12.258Z,8207
2022-08-09T11:57:12.263Z,8196
2022-08-09T11:58:12.251Z,8819
2022-08-09T11:59:12.293Z,8819
2022-08-09T12:00:16.432Z,19654
2022-08-09T12:01:15.590Z,18022
2022-08-09T12:02:17.559Z,20175
2022-08-09T12:03:50.442Z,19895
2022-08-09T12:04:20.806Z,20068
2022-08-09T12:05:17.442Z,20028
2022-08-09T12:06:12.254Z,13672
2022-08-09T12:07:14.135Z,20024
2022-08-09T12:08:19.790Z,20205
2022-08-09T12:09:19.175Z,18938
2022-08-09T12:10:32.018Z,7649
2022-08-09T12:11:12.828Z,6226
2022-08-09T12:12:20.538Z,5876
2022-08-09T12:14:08.269Z,5820
2022-08-09T12:14:18.014Z,5918
2022-08-09T12:15:12.247Z,5994
2022-08-09T12:16:25.653Z,6108
2022-08-09T12:17:20.954Z,6281
2022-08-09T12:18:12.256Z,6554
2022-08-09T12:19:12.411Z,6821
2022-08-09T12:20:12.255Z,6967
2022-08-09T12:21:28.314Z,7122
2022-08-09T12:22:12.268Z,7437
2022-08-09T12:23:12.255Z,7833
2022-08-09T12:24:12.256Z,8491
2022-08-09T12:25:12.273Z,9643
2022-08-09T12:26:12.250Z,20087
2022-08-09T12:28:58.297Z,15125
2022-08-09T12:29:10.642Z,20055
2022-08-09T12:29:29.736Z,11829
2022-08-09T12:30:36.891Z,14751
2022-08-09T12:31:30.939Z,18894
2022-08-09T12:32:12.261Z,11910
2022-08-09T12:33:12.257Z,11309
2022-08-09T12:34:12.249Z,19888
2022-08-09T12:35:13.307Z,13293
2022-08-09T12:36:15.507Z,11103
2022-08-09T12:37:23.672Z,17910
2022-08-09T12:38:12.260Z,10747
2022-08-09T12:39:12.271Z,9678
2022-08-09T12:40:12.264Z,9171
2022-08-09T12:41:12.243Z,8838
2022-08-09T12:42:16.313Z,8572
2022-08-09T12:43:12.257Z,8384
2022-08-09T12:44:13.013Z,8322
2022-08-09T12:45:34.982Z,8301
2022-08-09T12:46:12.270Z,8430
2022-08-09T12:47:12.455Z,8543
2022-08-09T12:48:30.844Z,8937
2022-08-09T12:49:12.251Z,9590
2022-08-09T12:50:12.270Z,10530
2022-08-09T12:51:12.263Z,11420
2022-08-09T12:52:12.260Z,23423
2022-08-09T12:53:17.986Z,23006
2022-08-09T12:54:12.241Z,16428
2022-08-09T12:56:14.001Z,20960
2022-08-09T12:56:39.292Z,21740
2022-08-09T12:57:12.257Z,23270
2022-08-09T12:58:12.257Z,24024
2022-08-09T12:59:12.250Z,24024
2022-08-09T13:00:12.248Z,24053
2022-08-09T13:01:12.303Z,23827
2022-08-09T13:02:12.258Z,24037
2022-08-09T13:03:24.408Z,23725
2022-08-09T13:04:35.774Z,23371
2022-08-09T13:05:12.240Z,23475
2022-08-09T13:06:14.719Z,23921
2022-08-09T13:07:13.387Z,23932
2022-08-09T13:08:12.258Z,23686
2022-08-09T13:09:12.558Z,23517
2022-08-09T13:10:12.269Z,23535
2022-08-09T13:11:23.080Z,23851
2022-08-09T13:12:12.270Z,24260
2022-08-09T13:13:12.253Z,25312
2022-08-09T13:14:41.540Z,14859
2022-08-09T13:15:12.242Z,11394
2022-08-09T13:16:12.255Z,19866
2022-08-09T13:17:12.288Z,21707
2022-08-09T13:18:17.574Z,13593
2022-08-09T13:19:12.282Z,10919
2022-08-09T13:20:20.182Z,16977
2022-08-09T13:22:35.320Z,9964
2022-08-09T13:22:36.208Z,14620
2022-08-09T13:24:15.679Z,10141
2022-08-09T13:24:42.089Z,21506
2022-08-09T13:25:14.349Z,11789
2022-08-09T13:26:12.257Z,9566
2022-08-09T13:27:12.268Z,9011
2022-08-09T13:28:18.773Z,8898
2022-08-09T13:29:13.007Z,8860
2022-08-09T13:32:09.855Z,8747
2022-08-09T13:32:16.687Z,8731